sensor_id;sensor_type;location;lat;lon;timestamp;pressure;altitude;pressure_sealevel;temperature;humidity
20394;BME280;10356;50.544;9.642;2023-09-18T00:01:01;97722.44;;;17.13;100.00
20394;BME280;10356;50.544;9.642;2023-09-18T00:03:28;97713.25;;;17.09;100.00
20394;BME280;10356;50.544;9.642;2023-09-18T00:05:54;97713.41;;;17.08;100.00
20394;BME280;10356;50.544;9.642;2023-09-18T00:08:21;97711.28;;;17.03;100.00
20394;BME280;10356;50.544;9.642;2023-09-18T00:10:53;97709.03;;;17.00;100.00
20394;BME280;10356;50.544;9.642;2023-09-18T00:13:20;97706.72;;;16.97;100.00
20394;BME280;10356;50.544;9.642;2023-09-18T00:15:46;97703.44;;;16.95;100.00
20394;BME280;10356;50.544;9.642;2023-09-18T00:18:14;97707.41;;;16.91;100.00
20394;BME280;10356;50.544;9.642;2023-09-18T00:20:41;97704.13;;;16.89;100.00
20394;BME280;10356;50.544;9.642;2023-09-18T00:23:08;97698.22;;;16.87;100.00
20394;BME280;10356;50.544;9.642;2023-09-18T00:25:35;97691.66;;;16.83;100.00
20394;BME280;10356;50.544;9.642;2023-09-18T00:28:04;97693.31;;;16.84;100.00
20394;BME280;10356;50.544;9.642;2023-09-18T00:30:30;97683.75;;;16.83;100.00
20394;BME280;10356;50.544;9.642;2023-09-18T00:32:57;97683.75;;;16.83;100.00
20394;BME280;10356;50.544;9.642;2023-09-18T00:35:23;97681.13;;;16.83;100.00
20394;BME280;10356;50.544;9.642;2023-09-18T00:37:50;97684.41;;;16.85;100.00
20394;BME280;10356;50.544;9.642;2023-09-18T00:40:16;97674.91;;;16.84;100.00
20394;BME280;10356;50.544;9.642;2023-09-18T00:42:43;97665.19;;;16.85;100.00
20394;BME280;10356;50.544;9.642;2023-09-18T00:45:11;97665.53;;;16.82;100.00
20394;BME280;10356;50.544;9.642;2023-09-18T00:47:37;97666.03;;;16.77;100.00
20394;BME280;10356;50.544;9.642;2023-09-18T00:50:06;97665.38;;;16.75;100.00
20394;BME280;10356;50.544;9.642;2023-09-18T00:52:34;97655.53;;;16.69;100.00
20394;BME280;10356;50.544;9.642;2023-09-18T00:55:02;97656.88;;;16.65;100.00
20394;BME280;10356;50.544;9.642;2023-09-18T00:57:29;97663.94;;;16.64;100.00
20394;BME280;10356;50.544;9.642;2023-09-18T00:59:55;97663.13;;;16.64;100.00
20394;BME280;10356;50.544;9.642;2023-09-18T01:02:23;97663.28;;;16.62;100.00
20394;BME280;10356;50.544;9.642;2023-09-18T01:04:50;97657.56;;;16.59;100.00
20394;BME280;10356;50.544;9.642;2023-09-18T01:07:16;97654.47;;;16.55;100.00
20394;BME280;10356;50.544;9.642;2023-09-18T01:09:43;97647.91;;;16.51;100.00
20394;BME280;10356;50.544;9.642;2023-09-18T01:12:15;97648.06;;;16.50;100.00
20394;BME280;10356;50.544;9.642;2023-09-18T01:14:50;97649.88;;;16.49;100.00
20394;BME280;10356;50.544;9.642;2023-09-18T01:17:21;97636.88;;;16.48;100.00
20394;BME280;10356;50.544;9.642;2023-09-18T01:19:49;97640.47;;;16.47;100.00
20394;BME280;10356;50.544;9.642;2023-09-18T01:22:18;97632.75;;;16.45;100.00
20394;BME280;10356;50.544;9.642;2023-09-18T01:24:47;97629.31;;;16.45;100.00
20394;BME280;10356;50.544;9.642;2023-09-18T01:27:15;97641.63;;;16.44;100.00
20394;BME280;10356;50.544;9.642;2023-09-18T01:29:43;97631.47;;;16.41;100.00
20394;BME280;10356;50.544;9.642;2023-09-18T01:32:09;97631.47;;;16.41;100.00
20394;BME280;10356;50.544;9.642;2023-09-18T01:34:38;97625.75;;;16.38;100.00
20394;BME280;10356;50.544;9.642;2023-09-18T01:37:07;97621.81;;;16.34;100.00
20394;BME280;10356;50.544;9.642;2023-09-18T01:39:36;97619.19;;;16.34;100.00
20394;BME280;10356;50.544;9.642;2023-09-18T01:42:05;97613.28;;;16.32;100.00
20394;BME280;10356;50.544;9.642;2023-09-18T01:44:32;97611.44;;;16.32;100.00
20394;BME280;10356;50.544;9.642;2023-09-18T01:47:01;97610.47;;;16.33;100.00
20394;BME280;10356;50.544;9.642;2023-09-18T01:49:29;97601.94;;;16.31;100.00
20394;BME280;10356;50.544;9.642;2023-09-18T01:51:56;97608.16;;;16.30;100.00
20394;BME280;10356;50.544;9.642;2023-09-18T01:54:23;97607.38;;;16.30;100.00
20394;BME280;10356;50.544;9.642;2023-09-18T01:56:50;97606.34;;;16.31;100.00
20394;BME280;10356;50.544;9.642;2023-09-18T01:59:18;97603.91;;;16.29;100.00
20394;BME280;10356;50.544;9.642;2023-09-18T02:01:45;97601.13;;;16.23;100.00
20394;BME280;10356;50.544;9.642;2023-09-18T02:04:11;97589.97;;;16.21;100.00
20394;BME280;10356;50.544;9.642;2023-09-18T02:06:38;97590.78;;;16.21;100.00
20394;BME280;10356;50.544;9.642;2023-09-18T02:09:05;97592.59;;;16.21;100.00
20394;BME280;10356;50.544;9.642;2023-09-18T02:11:33;97592.94;;;16.18;100.00
20394;BME280;10356;50.544;9.642;2023-09-18T02:14:00;97588.34;;;16.20;100.00
20394;BME280;10356;50.544;9.642;2023-09-18T02:16:32;97589.97;;;16.21;100.00
20394;BME280;10356;50.544;9.642;2023-09-18T02:18:58;97585.34;;;16.23;100.00
20394;BME280;10356;50.544;9.642;2023-09-18T02:21:25;97581.41;;;16.27;100.00
20394;BME280;10356;50.544;9.642;2023-09-18T02:23:52;97580.56;;;16.26;100.00
20394;BME280;10356;50.544;9.642;2023-09-18T02:26:20;97576.97;;;16.27;100.00
20394;BME280;10356;50.544;9.642;2023-09-18T02:28:46;97566.28;;;16.29;100.00
20394;BME280;10356;50.544;9.642;2023-09-18T02:31:13;97559.22;;;16.29;100.00
20394;BME280;10356;50.544;9.642;2023-09-18T02:33:42;97560.03;;;16.30;100.00
20394;BME280;10356;50.544;9.642;2023-09-18T02:36:09;97548.03;;;16.27;100.00
20394;BME280;10356;50.544;9.642;2023-09-18T02:38:35;97541.78;;;16.28;100.00
20394;BME280;10356;50.544;9.642;2023-09-18T02:41:02;97534.72;;;16.29;100.00
20394;BME280;10356;50.544;9.642;2023-09-18T02:43:29;97543.91;;;16.33;100.00
20394;BME280;10356;50.544;9.642;2023-09-18T02:45:55;97537.03;;;16.32;100.00
20394;BME280;10356;50.544;9.642;2023-09-18T02:48:22;97526.50;;;16.32;100.00
20394;BME280;10356;50.544;9.642;2023-09-18T02:50:49;97524.84;;;16.31;100.00
20394;BME280;10356;50.544;9.642;2023-09-18T02:53:17;97524.69;;;16.32;100.00
20394;BME280;10356;50.544;9.642;2023-09-18T02:55:45;97524.03;;;16.30;100.00
20394;BME280;10356;50.544;9.642;2023-09-18T02:58:11;97513.88;;;16.27;100.00
20394;BME280;10356;50.544;9.642;2023-09-18T03:00:41;97513.03;;;16.27;100.00
20394;BME280;10356;50.544;9.642;2023-09-18T03:03:08;97513.41;;;16.24;100.00
20394;BME280;10356;50.544;9.642;2023-09-18T03:05:35;97512.75;;;16.22;100.00
20394;BME280;10356;50.544;9.642;2023-09-18T03:08:03;97512.41;;;16.25;100.00
20394;BME280;10356;50.544;9.642;2023-09-18T03:10:32;97510.41;;;16.27;100.00
20394;BME280;10356;50.544;9.642;2023-09-18T03:12:59;97530.75;;;16.33;100.00
20394;BME280;10356;50.544;9.642;2023-09-18T03:15:26;97533.06;;;16.36;100.00
20394;BME280;10356;50.544;9.642;2023-09-18T03:17:52;97529.88;;;16.40;100.00
20394;BME280;10356;50.544;9.642;2023-09-18T03:20:21;97542.53;;;16.45;100.00
20394;BME280;10356;50.544;9.642;2023-09-18T03:22:48;97572.41;;;16.60;100.00
20394;BME280;10356;50.544;9.642;2023-09-18T03:25:16;97627.84;;;16.81;100.00
20394;BME280;10356;50.544;9.642;2023-09-18T03:27:42;97668.19;;;17.04;100.00
20394;BME280;10356;50.544;9.642;2023-09-18T03:30:09;97660.66;;;17.24;100.00
20394;BME280;10356;50.544;9.642;2023-09-18T03:32:37;97646.06;;;17.67;100.00
20394;BME280;10356;50.544;9.642;2023-09-18T03:35:05;97658.88;;;18.07;100.00
20394;BME280;10356;50.544;9.642;2023-09-18T03:37:31;97650.44;;;18.55;100.00
20394;BME280;10356;50.544;9.642;2023-09-18T03:39:58;97633.31;;;18.80;100.00
20394;BME280;10356;50.544;9.642;2023-09-18T03:42:25;97622.28;;;18.91;100.00
20394;BME280;10356;50.544;9.642;2023-09-18T03:44:52;97626.81;;;18.97;100.00
20394;BME280;10356;50.544;9.642;2023-09-18T03:47:18;97607.69;;;18.95;100.00
20394;BME280;10356;50.544;9.642;2023-09-18T03:49:45;97609.34;;;18.96;100.00
20394;BME280;10356;50.544;9.642;2023-09-18T03:52:11;97614.16;;;18.93;100.00
20394;BME280;10356;50.544;9.642;2023-09-18T03:54:38;97607.88;;;18.94;100.00
20394;BME280;10356;50.544;9.642;2023-09-18T03:57:05;97599.53;;;18.90;100.00
20394;BME280;10356;50.544;9.642;2023-09-18T03:59:33;97598.06;;;18.88;100.00
20394;BME280;10356;50.544;9.642;2023-09-18T04:01:59;97584.44;;;18.84;100.00
20394;BME280;10356;50.544;9.642;2023-09-18T04:04:25;97581.41;;;18.87;100.00
20394;BME280;10356;50.544;9.642;2023-09-18T04:06:53;97559.56;;;18.79;100.00
20394;BME280;10356;50.544;9.642;2023-09-18T04:09:20;97567.34;;;18.80;100.00
20394;BME280;10356;50.544;9.642;2023-09-18T04:11:46;97567.59;;;18.71;100.00
20394;BME280;10356;50.544;9.642;2023-09-18T04:14:13;97553.78;;;18.69;100.00
20394;BME280;10356;50.544;9.642;2023-09-18T04:16:41;97551.25;;;18.61;100.00
20394;BME280;10356;50.544;9.642;2023-09-18T04:19:08;97551.56;;;18.51;100.00
20394;BME280;10356;50.544;9.642;2023-09-18T04:21:35;97554.31;;;18.43;100.00
20394;BME280;10356;50.544;9.642;2023-09-18T04:24:01;97542.47;;;18.39;100.00
20394;BME280;10356;50.544;9.642;2023-09-18T04:26:28;97521.75;;;18.36;100.00
20394;BME280;10356;50.544;9.642;2023-09-18T04:28:56;97518.81;;;18.31;100.00
20394;BME280;10356;50.544;9.642;2023-09-18T04:31:22;97503.38;;;18.28;100.00
20394;BME280;10356;50.544;9.642;2023-09-18T04:33:50;97500.91;;;18.26;100.00
20394;BME280;10356;50.544;9.642;2023-09-18T04:36:16;97498.47;;;18.25;100.00
20394;BME280;10356;50.544;9.642;2023-09-18T04:38:43;97494.00;;;18.25;100.00
20394;BME280;10356;50.544;9.642;2023-09-18T04:41:09;97487.09;;;18.24;100.00
20394;BME280;10356;50.544;9.642;2023-09-18T04:43:37;97486.69;;;18.42;100.00
20394;BME280;10356;50.544;9.642;2023-09-18T04:46:04;97473.00;;;18.32;100.00
20394;BME280;10356;50.544;9.642;2023-09-18T04:48:31;97469.41;;;18.39;100.00
20394;BME280;10356;50.544;9.642;2023-09-18T04:50:59;97458.44;;;18.36;100.00
20394;BME280;10356;50.544;9.642;2023-09-18T04:53:27;97451.91;;;18.32;100.00
20394;BME280;10356;50.544;9.642;2023-09-18T04:55:53;97455.91;;;18.28;100.00
20394;BME280;10356;50.544;9.642;2023-09-18T04:58:20;97463.53;;;18.23;100.00
20394;BME280;10356;50.544;9.642;2023-09-18T05:00:47;97471.22;;;18.18;100.00
20394;BME280;10356;50.544;9.642;2023-09-18T05:03:20;97478.50;;;18.16;100.00
20394;BME280;10356;50.544;9.642;2023-09-18T05:05:46;97480.53;;;18.20;100.00
20394;BME280;10356;50.544;9.642;2023-09-18T05:08:14;97477.38;;;18.25;100.00
20394;BME280;10356;50.544;9.642;2023-09-18T05:10:41;97476.81;;;18.29;100.00
20394;BME280;10356;50.544;9.642;2023-09-18T05:13:07;97474.63;;;18.33;100.00
20394;BME280;10356;50.544;9.642;2023-09-18T05:15:34;97476.25;;;18.34;100.00
20394;BME280;10356;50.544;9.642;2023-09-18T05:18:00;97476.63;;;18.31;100.00
20394;BME280;10356;50.544;9.642;2023-09-18T05:20:29;97484.53;;;18.31;100.00
20394;BME280;10356;50.544;9.642;2023-09-18T05:22:57;97486.53;;;18.29;100.00
20394;BME280;10356;50.544;9.642;2023-09-18T05:25:26;97487.16;;;18.31;100.00
20394;BME280;10356;50.544;9.642;2023-09-18T05:27:57;97496.72;;;18.32;100.00
20394;BME280;10356;50.544;9.642;2023-09-18T05:30:25;97501.00;;;18.33;100.00
20394;BME280;10356;50.544;9.642;2023-09-18T05:32:53;97490.81;;;18.30;100.00
20394;BME280;10356;50.544;9.642;2023-09-18T05:35:20;97488.34;;;18.28;100.00
20394;BME280;10356;50.544;9.642;2023-09-18T05:37:47;97490.00;;;18.29;100.00
20394;BME280;10356;50.544;9.642;2023-09-18T05:40:14;97483.72;;;18.30;100.00
20394;BME280;10356;50.544;9.642;2023-09-18T05:42:43;97476.63;;;18.31;100.00
20394;BME280;10356;50.544;9.642;2023-09-18T05:45:10;97483.53;;;18.32;100.00
20394;BME280;10356;50.544;9.642;2023-09-18T05:47:37;97458.16;;;18.31;100.00
20394;BME280;10356;50.544;9.642;2023-09-18T05:50:04;97447.41;;;18.32;100.00
20394;BME280;10356;50.544;9.642;2023-09-18T05:52:32;97432.41;;;18.33;100.00
20394;BME280;10356;50.544;9.642;2023-09-18T05:54:58;97407.69;;;18.34;100.00
20394;BME280;10356;50.544;9.642;2023-09-18T05:57:25;97396.38;;;18.40;100.00
20394;BME280;10356;50.544;9.642;2023-09-18T05:59:54;97397.66;;;18.44;100.00
20394;BME280;10356;50.544;9.642;2023-09-18T06:02:20;97417.28;;;18.41;100.00
20394;BME280;10356;50.544;9.642;2023-09-18T06:04:47;97425.41;;;18.40;100.00
20394;BME280;10356;50.544;9.642;2023-09-18T06:07:13;97429.66;;;18.41;100.00
20394;BME280;10356;50.544;9.642;2023-09-18T06:09:40;97441.50;;;18.45;100.00
20394;BME280;10356;50.544;9.642;2023-09-18T06:12:06;97434.47;;;18.52;100.00
20394;BME280;10356;50.544;9.642;2023-09-18T06:14:35;97442.41;;;18.52;100.00
20394;BME280;10356;50.544;9.642;2023-09-18T06:17:04;97435.91;;;18.55;100.00
20394;BME280;10356;50.544;9.642;2023-09-18T06:19:31;97440.00;;;18.57;100.00
20394;BME280;10356;50.544;9.642;2023-09-18T06:21:59;97442.81;;;18.56;100.00
20394;BME280;10356;50.544;9.642;2023-09-18T06:24:25;97455.63;;;18.59;100.00
20394;BME280;10356;50.544;9.642;2023-09-18T06:26:52;97468.47;;;18.62;100.00
20394;BME280;10356;50.544;9.642;2023-09-18T06:29:18;97473.00;;;18.68;100.00
20394;BME280;10356;50.544;9.642;2023-09-18T06:31:45;97470.16;;;18.69;100.00
20394;BME280;10356;50.544;9.642;2023-09-18T06:34:13;97458.91;;;18.82;100.00
20394;BME280;10356;50.544;9.642;2023-09-18T06:36:39;97452.31;;;18.92;100.00
20394;BME280;10356;50.544;9.642;2023-09-18T06:39:06;97459.13;;;19.08;100.00
20394;BME280;10356;50.544;9.642;2023-09-18T06:41:32;97472.25;;;19.22;100.00
20394;BME280;10356;50.544;9.642;2023-09-18T06:43:59;97474.38;;;19.34;100.00
20394;BME280;10356;50.544;9.642;2023-09-18T06:46:27;97483.38;;;19.39;100.00
20394;BME280;10356;50.544;9.642;2023-09-18T06:48:54;97489.94;;;19.50;100.00
20394;BME280;10356;50.544;9.642;2023-09-18T06:51:22;97495.69;;;19.53;100.00
20394;BME280;10356;50.544;9.642;2023-09-18T06:53:49;97518.88;;;19.58;100.00
20394;BME280;10356;50.544;9.642;2023-09-18T06:56:15;97515.59;;;19.56;100.00
20394;BME280;10356;50.544;9.642;2023-09-18T06:58:42;97518.25;;;19.56;100.00
20394;BME280;10356;50.544;9.642;2023-09-18T07:01:08;97524.16;;;19.58;100.00
20394;BME280;10356;50.544;9.642;2023-09-18T07:03:35;97522.38;;;19.65;100.00
20394;BME280;10356;50.544;9.642;2023-09-18T07:06:02;97516.06;;;19.66;100.00
20394;BME280;10356;50.544;9.642;2023-09-18T07:08:31;97520.56;;;19.65;100.00
20394;BME280;10356;50.544;9.642;2023-09-18T07:10:58;97517.09;;;19.65;100.00
20394;BME280;10356;50.544;9.642;2023-09-18T07:13:24;97511.03;;;19.71;100.00
20394;BME280;10356;50.544;9.642;2023-09-18T07:15:51;97511.72;;;19.79;100.00
20394;BME280;10356;50.544;9.642;2023-09-18T07:18:17;97517.16;;;19.78;100.00
20394;BME280;10356;50.544;9.642;2023-09-18T07:20:44;97507.06;;;19.88;100.00
20394;BME280;10356;50.544;9.642;2023-09-18T07:23:11;97492.50;;;20.05;100.00
20394;BME280;10356;50.544;9.642;2023-09-18T07:25:38;97491.22;;;20.29;100.00
20394;BME280;10356;50.544;9.642;2023-09-18T07:28:06;97491.72;;;20.52;100.00
20394;BME280;10356;50.544;9.642;2023-09-18T07:30:33;97489.91;;;20.72;100.00
20394;BME280;10356;50.544;9.642;2023-09-18T07:32:59;97492.59;;;20.91;99.63
20394;BME280;10356;50.544;9.642;2023-09-18T07:35:26;97493.88;;;21.09;97.71
20394;BME280;10356;50.544;9.642;2023-09-18T07:37:52;97484.28;;;21.27;95.01
20394;BME280;10356;50.544;9.642;2023-09-18T07:40:19;97491.84;;;21.37;93.88
20394;BME280;10356;50.544;9.642;2023-09-18T07:42:46;97490.16;;;21.75;93.38
20394;BME280;10356;50.544;9.642;2023-09-18T07:45:12;97484.56;;;22.09;91.93
20394;BME280;10356;50.544;9.642;2023-09-18T07:47:39;97496.94;;;22.28;89.29
20394;BME280;10356;50.544;9.642;2023-09-18T07:50:06;97494.84;;;22.43;86.45
20394;BME280;10356;50.544;9.642;2023-09-18T07:52:33;97502.94;;;22.55;86.28
20394;BME280;10356;50.544;9.642;2023-09-18T07:54:59;97496.81;;;22.54;86.11
20394;BME280;10356;50.544;9.642;2023-09-18T07:57:26;97504.16;;;22.66;84.54
20394;BME280;10356;50.544;9.642;2023-09-18T07:59:56;97509.28;;;22.61;83.93
20394;BME280;10356;50.544;9.642;2023-09-18T08:02:23;97516.38;;;22.67;85.10
20394;BME280;10356;50.544;9.642;2023-09-18T08:04:50;97513.56;;;22.62;84.34
20394;BME280;10356;50.544;9.642;2023-09-18T08:07:18;97508.50;;;22.47;83.30
20394;BME280;10356;50.544;9.642;2023-09-18T08:09:45;97508.94;;;22.44;84.68
20394;BME280;10356;50.544;9.642;2023-09-18T08:12:12;97519.59;;;22.31;83.79
20394;BME280;10356;50.544;9.642;2023-09-18T08:14:39;97530.03;;;22.26;86.00
20394;BME280;10356;50.544;9.642;2023-09-18T08:17:07;97512.88;;;22.28;85.17
20394;BME280;10356;50.544;9.642;2023-09-18T08:19:33;97520.22;;;22.26;84.09
20394;BME280;10356;50.544;9.642;2023-09-18T08:22:00;97515.72;;;22.33;85.05
20394;BME280;10356;50.544;9.642;2023-09-18T08:24:29;97520.56;;;22.43;83.84
20394;BME280;10356;50.544;9.642;2023-09-18T08:26:55;97524.06;;;22.37;83.60
20394;BME280;10356;50.544;9.642;2023-09-18T08:29:22;97527.56;;;22.24;81.83
20394;BME280;10356;50.544;9.642;2023-09-18T08:31:49;97543.09;;;22.34;82.30
20394;BME280;10356;50.544;9.642;2023-09-18T08:34:17;97545.75;;;22.34;81.37
20394;BME280;10356;50.544;9.642;2023-09-18T08:36:43;97554.94;;;22.31;79.80
20394;BME280;10356;50.544;9.642;2023-09-18T08:39:10;97546.16;;;22.31;80.74
20394;BME280;10356;50.544;9.642;2023-09-18T08:41:38;97557.16;;;22.34;81.66
20394;BME280;10356;50.544;9.642;2023-09-18T08:44:08;97558.97;;;22.40;81.38
20394;BME280;10356;50.544;9.642;2023-09-18T08:46:36;97559.94;;;22.52;81.40
20394;BME280;10356;50.544;9.642;2023-09-18T08:49:04;97567.91;;;22.66;80.59
20394;BME280;10356;50.544;9.642;2023-09-18T08:51:33;97556.88;;;23.00;77.56
20394;BME280;10356;50.544;9.642;2023-09-18T08:54:00;97564.44;;;23.34;78.26
20394;BME280;10356;50.544;9.642;2023-09-18T08:56:28;97560.34;;;23.63;75.77
20394;BME280;10356;50.544;9.642;2023-09-18T08:58:56;97562.63;;;23.59;74.24
20394;BME280;10356;50.544;9.642;2023-09-18T09:01:25;97560.66;;;23.48;73.14
20394;BME280;10356;50.544;9.642;2023-09-18T09:03:52;97547.00;;;23.45;73.98
20394;BME280;10356;50.544;9.642;2023-09-18T09:06:18;97548.22;;;23.42;73.46
20394;BME280;10356;50.544;9.642;2023-09-18T09:08:46;97541.50;;;23.64;73.68
20394;BME280;10356;50.544;9.642;2023-09-18T09:11:13;97547.63;;;23.89;72.44
20394;BME280;10356;50.544;9.642;2023-09-18T09:13:39;97549.94;;;24.04;71.21
20394;BME280;10356;50.544;9.642;2023-09-18T09:16:07;97548.91;;;23.80;69.28
20394;BME280;10356;50.544;9.642;2023-09-18T09:18:47;97541.88;;;23.68;69.93
20394;BME280;10356;50.544;9.642;2023-09-18T09:21:14;97561.31;;;23.44;70.62
20394;BME280;10356;50.544;9.642;2023-09-18T09:23:47;97549.53;;;23.33;72.05
20394;BME280;10356;50.544;9.642;2023-09-18T09:26:18;97554.41;;;23.36;71.64
20394;BME280;10356;50.544;9.642;2023-09-18T09:28:45;97542.81;;;23.55;71.45
20394;BME280;10356;50.544;9.642;2023-09-18T09:31:23;97537.41;;;23.86;72.49
20394;BME280;10356;50.544;9.642;2023-09-18T09:33:51;97543.19;;;23.83;68.45
20394;BME280;10356;50.544;9.642;2023-09-18T09:36:19;97538.88;;;23.82;70.26
20394;BME280;10356;50.544;9.642;2023-09-18T09:38:47;97535.19;;;23.83;69.31
20394;BME280;10356;50.544;9.642;2023-09-18T09:41:14;97526.16;;;23.84;70.86
20394;BME280;10356;50.544;9.642;2023-09-18T09:43:44;97540.22;;;23.91;69.92
20394;BME280;10356;50.544;9.642;2023-09-18T09:46:15;97528.53;;;23.92;70.07
20394;BME280;10356;50.544;9.642;2023-09-18T09:48:57;97538.63;;;23.84;70.77
20394;BME280;10356;50.544;9.642;2023-09-18T09:51:24;97524.16;;;23.80;70.73
20394;BME280;10356;50.544;9.642;2023-09-18T09:53:52;97521.41;;;23.68;70.99
20394;BME280;10356;50.544;9.642;2023-09-18T09:56:19;97511.81;;;23.67;70.75
20394;BME280;10356;50.544;9.642;2023-09-18T09:59:00;97520.97;;;23.71;71.93
20394;BME280;10356;50.544;9.642;2023-09-18T10:01:27;97531.63;;;23.71;71.06
20394;BME280;10356;50.544;9.642;2023-09-18T10:03:55;97545.03;;;23.58;70.58
20394;BME280;10356;50.544;9.642;2023-09-18T10:06:23;97541.91;;;23.43;71.50
20394;BME280;10356;50.544;9.642;2023-09-18T10:08:52;97541.34;;;23.34;70.94
20394;BME280;10356;50.544;9.642;2023-09-18T10:11:21;97542.41;;;23.27;70.34
20394;BME280;10356;50.544;9.642;2023-09-18T10:13:53;97556.31;;;23.22;72.15
20394;BME280;10356;50.544;9.642;2023-09-18T10:16:23;97550.09;;;23.04;71.18
20394;BME280;10356;50.544;9.642;2023-09-18T10:18:59;97559.78;;;22.92;71.27
20394;BME280;10356;50.544;9.642;2023-09-18T10:21:33;97558.38;;;22.89;72.14
20394;BME280;10356;50.544;9.642;2023-09-18T10:24:12;97557.50;;;22.95;71.13
20394;BME280;10356;50.544;9.642;2023-09-18T10:26:46;97552.59;;;22.99;72.21
20394;BME280;10356;50.544;9.642;2023-09-18T10:29:15;97561.34;;;23.06;71.90
20394;BME280;10356;50.544;9.642;2023-09-18T10:31:44;97548.69;;;23.01;72.12
20394;BME280;10356;50.544;9.642;2023-09-18T10:34:12;97546.38;;;23.11;71.47
20394;BME280;10356;50.544;9.642;2023-09-18T10:36:41;97543.78;;;23.29;71.12
20394;BME280;10356;50.544;9.642;2023-09-18T10:39:09;97547.13;;;23.25;70.97
20394;BME280;10356;50.544;9.642;2023-09-18T10:41:38;97547.13;;;23.25;70.97
20394;BME280;10356;50.544;9.642;2023-09-18T10:44:07;97541.88;;;23.12;70.98
20394;BME280;10356;50.544;9.642;2023-09-18T10:46:34;97566.06;;;23.04;72.17
20394;BME280;10356;50.544;9.642;2023-09-18T10:49:01;97566.06;;;23.04;72.62
20394;BME280;10356;50.544;9.642;2023-09-18T10:51:31;97578.78;;;22.95;71.75
20394;BME280;10356;50.544;9.642;2023-09-18T10:53:58;97590.50;;;22.81;72.62
20394;BME280;10356;50.544;9.642;2023-09-18T10:56:27;97586.00;;;22.82;73.51
20394;BME280;10356;50.544;9.642;2023-09-18T10:58:58;97589.66;;;22.87;72.09
20394;BME280;10356;50.544;9.642;2023-09-18T11:01:25;97595.59;;;22.83;72.72
20394;BME280;10356;50.544;9.642;2023-09-18T11:03:53;97603.53;;;22.89;73.08
20394;BME280;10356;50.544;9.642;2023-09-18T11:06:19;97600.72;;;22.84;72.60
20394;BME280;10356;50.544;9.642;2023-09-18T11:08:58;97608.22;;;22.94;72.64
20394;BME280;10356;50.544;9.642;2023-09-18T11:11:27;97603.75;;;22.88;72.32
20394;BME280;10356;50.544;9.642;2023-09-18T11:13:56;97605.25;;;22.71;73.10
20394;BME280;10356;50.544;9.642;2023-09-18T11:16:35;97583.00;;;22.72;74.38
20394;BME280;10356;50.544;9.642;2023-09-18T11:19:16;97580.13;;;22.67;74.12
20394;BME280;10356;50.544;9.642;2023-09-18T11:21:44;97577.25;;;22.75;74.70
20394;BME280;10356;50.544;9.642;2023-09-18T11:24:16;97559.06;;;22.78;72.98
20394;BME280;10356;50.544;9.642;2023-09-18T11:26:45;97569.09;;;22.70;73.65
20394;BME280;10356;50.544;9.642;2023-09-18T11:29:14;97580.19;;;22.60;74.38
20394;BME280;10356;50.544;9.642;2023-09-18T11:31:44;97585.88;;;22.50;75.17
20394;BME280;10356;50.544;9.642;2023-09-18T11:34:12;97588.75;;;22.49;75.60
20394;BME280;10356;50.544;9.642;2023-09-18T11:36:38;97589.38;;;22.58;76.04
20394;BME280;10356;50.544;9.642;2023-09-18T11:39:06;97595.28;;;22.60;75.53
20394;BME280;10356;50.544;9.642;2023-09-18T11:41:35;97594.47;;;22.66;74.71
20394;BME280;10356;50.544;9.642;2023-09-18T11:44:32;97604.03;;;22.67;74.79
20394;BME280;10356;50.544;9.642;2023-09-18T11:47:02;97600.97;;;22.70;74.38
20394;BME280;10356;50.544;9.642;2023-09-18T11:49:29;97595.66;;;22.70;74.35
20394;BME280;10356;50.544;9.642;2023-09-18T11:51:58;97585.41;;;22.80;74.72
20394;BME280;10356;50.544;9.642;2023-09-18T11:54:25;97582.97;;;22.78;74.34
20394;BME280;10356;50.544;9.642;2023-09-18T11:56:53;97592.56;;;22.73;74.59
20394;BME280;10356;50.544;9.642;2023-09-18T11:59:36;97591.59;;;22.67;74.15
20394;BME280;10356;50.544;9.642;2023-09-18T12:02:02;97597.94;;;22.66;74.71
20394;BME280;10356;50.544;9.642;2023-09-18T12:04:31;97609.41;;;22.60;75.75
20394;BME280;10356;50.544;9.642;2023-09-18T12:06:59;97605.31;;;22.44;77.02
20394;BME280;10356;50.544;9.642;2023-09-18T12:09:28;97600.19;;;22.63;75.74
20394;BME280;10356;50.544;9.642;2023-09-18T12:11:55;97601.50;;;22.85;74.64
20394;BME280;10356;50.544;9.642;2023-09-18T12:14:22;97591.94;;;22.84;74.25
20394;BME280;10356;50.544;9.642;2023-09-18T12:16:50;97591.44;;;23.00;73.89
20394;BME280;10356;50.544;9.642;2023-09-18T12:19:18;97585.84;;;23.14;71.63
20394;BME280;10356;50.544;9.642;2023-09-18T12:21:46;97586.50;;;23.03;71.93
20394;BME280;10356;50.544;9.642;2023-09-18T12:24:14;97586.44;;;23.16;73.34
20394;BME280;10356;50.544;9.642;2023-09-18T12:26:40;97592.09;;;23.26;72.73
20394;BME280;10356;50.544;9.642;2023-09-18T12:29:07;97589.81;;;23.30;71.27
20394;BME280;10356;50.544;9.642;2023-09-18T12:31:35;97591.81;;;23.41;72.17
20394;BME280;10356;50.544;9.642;2023-09-18T12:34:03;97590.03;;;23.35;71.27
20394;BME280;10356;50.544;9.642;2023-09-18T12:36:32;97581.06;;;23.23;71.06
20394;BME280;10356;50.544;9.642;2023-09-18T12:38:59;97589.06;;;23.23;72.56
20394;BME280;10356;50.544;9.642;2023-09-18T12:41:26;97587.69;;;23.45;72.67
20394;BME280;10356;50.544;9.642;2023-09-18T12:43:53;97601.59;;;23.47;71.29
20394;BME280;10356;50.544;9.642;2023-09-18T12:46:20;97618.19;;;23.43;70.26
20394;BME280;10356;50.544;9.642;2023-09-18T12:48:48;97621.97;;;23.22;71.98
20394;BME280;10356;50.544;9.642;2023-09-18T12:51:16;97616.88;;;23.20;72.44
20394;BME280;10356;50.544;9.642;2023-09-18T12:53:47;97627.44;;;22.89;72.76
20394;BME280;10356;50.544;9.642;2023-09-18T12:56:14;97619.31;;;22.84;73.42
20394;BME280;10356;50.544;9.642;2023-09-18T12:58:41;97611.78;;;22.75;73.65